createdAt,value
2019-06-08T00:02:16.532Z,19.10
2019-06-08T00:04:47.747Z,21.60
2019-06-08T00:07:18.926Z,22.10
2019-06-08T00:09:50.645Z,18.42
2019-06-08T00:12:22.991Z,24.10
2019-06-08T00:14:54.531Z,25.88
2019-06-08T00:17:37.228Z,21.93
2019-06-08T00:19:58.549Z,22.45
2019-06-08T00:22:29.832Z,21.10
2019-06-08T00:25:01.083Z,25.15
2019-06-08T00:27:33.798Z,22.15
2019-06-08T00:30:07.965Z,27.32
2019-06-08T00:32:39.217Z,17.50
2019-06-08T00:35:10.619Z,17.52
2019-06-08T00:37:41.767Z,17.02
2019-06-08T00:40:14.709Z,20.37
2019-06-08T00:42:45.923Z,17.75
2019-06-08T00:45:17.651Z,19.52
2019-06-08T00:47:48.983Z,16.60
2019-06-08T00:50:21.033Z,20.45
2019-06-08T00:52:52.585Z,17.10
2019-06-08T00:55:23.861Z,18.82
2019-06-08T00:57:55.183Z,20.70
2019-06-08T01:00:26.862Z,25.05
2019-06-08T01:02:58.171Z,19.82
2019-06-08T01:05:30.253Z,22.58
2019-06-08T01:08:01.362Z,23.73
2019-06-08T01:10:32.505Z,24.60
2019-06-08T01:13:03.791Z,20.90
2019-06-08T01:15:35.257Z,19.40
2019-06-08T01:18:06.544Z,25.20
2019-06-08T01:20:37.751Z,25.80
2019-06-08T01:23:09.163Z,27.35
2019-06-08T01:25:40.484Z,24.67
2019-06-08T01:28:11.657Z,22.05
2019-06-08T01:30:42.891Z,23.75
2019-06-08T01:33:13.906Z,22.70
2019-06-08T01:35:45.068Z,19.80
2019-06-08T01:38:16.325Z,19.60
2019-06-08T01:40:47.467Z,18.55
2019-06-08T01:43:18.690Z,29.00
2019-06-08T01:45:49.844Z,21.02
2019-06-08T01:48:22.300Z,27.27
2019-06-08T01:50:54.735Z,28.95
2019-06-08T01:53:26.874Z,27.98
2019-06-08T01:55:58.043Z,26.07
2019-06-08T01:58:29.448Z,26.33
2019-06-08T02:01:00.684Z,20.77
2019-06-08T02:03:32.750Z,23.20
2019-06-08T02:06:04.300Z,24.05
2019-06-08T02:08:35.655Z,22.80
2019-06-08T02:11:07.263Z,23.18
2019-06-08T02:13:38.550Z,19.55
2019-06-08T02:16:09.754Z,23.50
2019-06-08T02:18:50.211Z,22.50
2019-06-08T02:21:13.699Z,29.07
2019-06-08T02:23:44.712Z,25.65
2019-06-08T02:26:15.944Z,30.60
2019-06-08T02:28:47.136Z,26.35
2019-06-08T02:31:18.481Z,28.20
2019-06-08T02:33:49.538Z,26.62
2019-06-08T02:36:20.543Z,29.87
2019-06-08T02:38:51.591Z,23.42
2019-06-08T02:41:22.747Z,32.95
2019-06-08T02:43:53.883Z,25.95
2019-06-08T02:46:25.478Z,25.27
2019-06-08T02:49:04.110Z,27.40
2019-06-08T02:51:31.272Z,29.15
2019-06-08T02:54:03.405Z,24.77
2019-06-08T02:56:37.316Z,24.55
2019-06-08T02:59:09.376Z,24.87
2019-06-08T03:01:43.190Z,32.45
2019-06-08T03:04:17.012Z,23.80
2019-06-08T03:06:51.306Z,24.67
2019-06-08T03:09:25.769Z,26.00
2019-06-08T03:11:57.618Z,26.27
2019-06-08T03:14:30.608Z,26.05
2019-06-08T03:17:01.951Z,30.37
2019-06-08T03:19:33.307Z,30.37
2019-06-08T03:22:04.751Z,29.30
2019-06-08T03:24:36.600Z,22.75
2019-06-08T03:27:07.751Z,24.25
2019-06-08T03:29:39.483Z,20.10
2019-06-08T03:32:11.602Z,19.95
2019-06-08T03:34:51.077Z,17.32
2019-06-08T03:37:15.736Z,15.83
2019-06-08T03:39:46.857Z,16.12
2019-06-08T03:42:18.232Z,20.75
2019-06-08T03:44:49.419Z,16.48
2019-06-08T03:47:20.653Z,19.23
2019-06-08T03:49:57.075Z,17.70
2019-06-08T03:52:24.585Z,16.65
2019-06-08T03:54:55.548Z,13.03
2019-06-08T03:57:26.462Z,19.00
2019-06-08T03:59:57.503Z,13.95
2019-06-08T04:02:28.817Z,19.95
2019-06-08T04:05:00.066Z,19.73
2019-06-08T04:07:31.158Z,18.57
2019-06-08T04:10:02.764Z,22.20
2019-06-08T04:12:34.004Z,15.70
2019-06-08T04:15:07.323Z,16.40
2019-06-08T04:17:39.699Z,16.95
2019-06-08T04:20:12.196Z,19.75
2019-06-08T04:22:47.144Z,16.73
2019-06-08T04:25:19.088Z,18.80
2019-06-08T04:27:51.027Z,20.50
2019-06-08T04:30:22.703Z,17.70
2019-06-08T04:32:53.653Z,20.48
2019-06-08T04:35:24.618Z,15.25
2019-06-08T04:37:55.577Z,17.70
2019-06-08T04:40:26.680Z,14.25
2019-06-08T04:42:57.751Z,18.52
2019-06-08T04:45:28.889Z,21.15
2019-06-08T04:47:59.984Z,16.02
2019-06-08T04:50:31.105Z,17.80
2019-06-08T04:53:01.925Z,18.52
2019-06-08T04:55:33.174Z,20.95
2019-06-08T04:58:04.502Z,23.32
2019-06-08T05:00:35.626Z,22.52
2019-06-08T05:03:06.909Z,23.98
2019-06-08T05:05:39.379Z,23.42
2019-06-08T05:08:11.609Z,24.60
2019-06-08T05:10:43.253Z,22.70
2019-06-08T05:13:14.618Z,19.80
2019-06-08T05:15:45.585Z,22.37
2019-06-08T05:18:16.593Z,21.65
2019-06-08T05:20:49.346Z,33.08
2019-06-08T05:23:20.315Z,29.23
2019-06-08T05:25:51.351Z,25.30
2019-06-08T05:28:22.499Z,18.45
2019-06-08T05:30:53.359Z,21.90
2019-06-08T05:33:24.421Z,19.37
2019-06-08T05:35:55.531Z,18.30
2019-06-08T05:38:26.511Z,21.35
2019-06-08T05:40:57.551Z,18.85
2019-06-08T05:43:28.404Z,21.05
2019-06-08T05:45:59.527Z,26.52
2019-06-08T05:48:30.818Z,20.55
2019-06-08T05:51:04.279Z,17.90
2019-06-08T05:53:34.507Z,15.83
2019-06-08T05:56:05.842Z,19.02
2019-06-08T05:58:36.843Z,20.08
2019-06-08T06:01:08.059Z,16.95
2019-06-08T06:03:40.331Z,17.90
2019-06-08T06:06:11.501Z,13.25
2019-06-08T06:08:42.691Z,16.12
2019-06-08T06:11:13.783Z,14.78
2019-06-08T06:13:45.385Z,15.60
2019-06-08T06:16:16.497Z,16.90
2019-06-08T06:18:47.637Z,16.23
2019-06-08T06:21:18.706Z,17.55
2019-06-08T06:23:49.765Z,16.75
2019-06-08T06:26:20.991Z,13.75
2019-06-08T06:28:52.210Z,12.53
2019-06-08T06:31:23.362Z,15.83
2019-06-08T06:33:54.435Z,11.33
2019-06-08T06:36:25.733Z,13.98
2019-06-08T06:38:56.965Z,12.40
2019-06-08T06:41:28.036Z,12.03
2019-06-08T06:43:59.012Z,13.70
2019-06-08T06:46:30.131Z,12.05
2019-06-08T06:49:01.302Z,11.43
2019-06-08T06:51:34.010Z,10.43
2019-06-08T06:54:05.230Z,11.12
2019-06-08T06:56:36.405Z,12.68
2019-06-08T06:59:07.528Z,13.05
2019-06-08T07:01:38.603Z,11.70
2019-06-08T07:04:10.471Z,21.57
2019-06-08T07:06:41.556Z,15.58
2019-06-08T07:09:12.679Z,32.23
2019-06-08T07:11:44.504Z,17.70
2019-06-08T07:14:15.953Z,12.35
2019-06-08T07:16:47.762Z,11.80
2019-06-08T07:19:19.080Z,11.20
2019-06-08T07:21:50.328Z,24.98
2019-06-08T07:24:21.480Z,23.87
2019-06-08T07:26:52.778Z,10.90
2019-06-08T07:29:23.907Z,12.00
2019-06-08T07:31:55.416Z,9.63
2019-06-08T07:34:26.607Z,9.78
2019-06-08T07:36:59.594Z,10.55
2019-06-08T07:39:30.814Z,10.13
2019-06-08T07:42:01.797Z,11.63
2019-06-08T07:44:32.835Z,10.20
2019-06-08T07:47:04.022Z,9.18
2019-06-08T07:49:35.244Z,10.93
2019-06-08T07:52:10.354Z,11.20
2019-06-08T07:54:39.198Z,10.03
2019-06-08T07:57:10.236Z,9.40
2019-06-08T07:59:41.359Z,8.43
2019-06-08T08:02:12.453Z,6.90
2019-06-08T08:04:43.446Z,9.88
2019-06-08T08:07:14.860Z,8.55
2019-06-08T08:09:45.984Z,7.60
2019-06-08T08:12:17.262Z,19.23
2019-06-08T08:14:48.760Z,9.10
2019-06-08T08:17:19.926Z,12.40
2019-06-08T08:19:51.318Z,9.08
2019-06-08T08:22:26.160Z,7.15
2019-06-08T08:24:58.116Z,16.30
2019-06-08T08:27:28.124Z,14.40
2019-06-08T08:30:01.709Z,10.78
2019-06-08T08:32:32.352Z,9.40
2019-06-08T08:35:03.671Z,12.00
2019-06-08T08:37:34.970Z,11.95
2019-06-08T08:40:08.779Z,11.93
2019-06-08T08:42:39.747Z,11.48
2019-06-08T08:45:13.117Z,11.15
2019-06-08T08:47:44.326Z,8.95
2019-06-08T08:50:15.688Z,12.25
2019-06-08T08:52:47.831Z,8.98
2019-06-08T08:55:20.629Z,8.13
2019-06-08T08:57:53.263Z,9.90
2019-06-08T09:00:27.988Z,9.78
2019-06-08T09:03:19.336Z,11.00
2019-06-08T09:05:31.237Z,13.35
2019-06-08T09:08:03.864Z,10.43
2019-06-08T09:10:35.355Z,11.50
2019-06-08T09:13:09.276Z,18.57
2019-06-08T09:15:40.894Z,13.08
2019-06-08T09:18:12.049Z,10.48
2019-06-08T09:20:43.299Z,14.20
2019-06-08T09:23:16.506Z,9.55
2019-06-08T09:25:48.351Z,9.53
2019-06-08T09:28:19.772Z,8.50
2019-06-08T09:30:51.977Z,10.08
2019-06-08T09:33:23.390Z,17.35
2019-06-08T09:35:54.892Z,11.48
2019-06-08T09:38:28.485Z,10.08
2019-06-08T09:41:01.220Z,10.53
2019-06-08T09:43:31.697Z,12.30
2019-06-08T09:46:05.263Z,9.80
2019-06-08T09:48:38.050Z,12.15
2019-06-08T09:51:09.254Z,10.48
2019-06-08T09:53:41.846Z,11.90
2019-06-08T09:56:12.982Z,10.03
2019-06-08T09:58:44.081Z,9.63
2019-06-08T10:01:15.487Z,11.83
2019-06-08T10:03:48.236Z,9.25
2019-06-08T10:06:19.431Z,11.55
2019-06-08T10:08:50.440Z,11.00
2019-06-08T10:11:21.467Z,12.80
2019-06-08T10:13:54.374Z,20.15
2019-06-08T10:16:28.028Z,12.47
2019-06-08T10:19:02.301Z,16.02
2019-06-08T10:21:31.312Z,16.55
2019-06-08T10:24:04.804Z,13.30
2019-06-08T10:26:37.508Z,16.87
2019-06-08T10:29:10.316Z,14.73
2019-06-08T10:31:43.535Z,16.32
2019-06-08T10:34:13.814Z,16.17
2019-06-08T10:36:44.850Z,23.18
2019-06-08T10:39:17.479Z,18.77
2019-06-08T10:41:51.667Z,17.85
2019-06-08T10:44:22.417Z,16.02
2019-06-08T10:46:53.575Z,20.23
2019-06-08T10:49:25.125Z,14.70
2019-06-08T10:51:59.012Z,13.62
2019-06-08T10:54:29.048Z,13.48
2019-06-08T10:57:02.568Z,13.93
2019-06-08T10:59:32.784Z,13.78
2019-06-08T11:02:06.203Z,13.18
2019-06-08T11:04:38.871Z,21.80
2019-06-08T11:07:15.812Z,15.53
2019-06-08T11:09:43.757Z,14.07
2019-06-08T11:12:16.162Z,11.88
2019-06-08T11:14:48.152Z,10.82
2019-06-08T11:17:19.405Z,13.20
2019-06-08T11:19:50.497Z,12.30
2019-06-08T11:22:21.615Z,13.15
2019-06-08T11:24:52.736Z,12.13
2019-06-08T11:27:23.872Z,12.07
2019-06-08T11:29:57.453Z,11.90
2019-06-08T11:32:27.881Z,12.63
2019-06-08T11:34:59.881Z,20.05
2019-06-08T11:37:30.805Z,14.18
2019-06-08T11:40:02.144Z,16.97
2019-06-08T11:42:33.438Z,12.00
2019-06-08T11:45:11.057Z,13.25
2019-06-08T11:47:40.636Z,12.13
2019-06-08T11:50:13.354Z,13.03
2019-06-08T11:52:45.058Z,13.98
2019-06-08T11:55:18.132Z,16.97
2019-06-08T11:57:49.477Z,18.90
2019-06-08T12:00:42.001Z,14.87
2019-06-08T12:03:13.156Z,13.25
2019-06-08T12:05:44.438Z,11.55
2019-06-08T12:08:17.645Z,12.85
2019-06-08T12:10:49.165Z,11.53
2019-06-08T12:13:20.460Z,14.73
2019-06-08T12:15:51.595Z,11.22
2019-06-08T12:18:22.886Z,11.28
2019-06-08T12:20:53.967Z,12.37
2019-06-08T12:23:25.165Z,12.15
2019-06-08T12:25:56.202Z,11.30
2019-06-08T12:28:28.033Z,13.78
2019-06-08T12:31:01.044Z,10.75
2019-06-08T12:33:31.937Z,14.18
2019-06-08T12:36:02.768Z,13.88
2019-06-08T12:38:34.738Z,15.43
2019-06-08T12:41:09.187Z,14.45
2019-06-08T12:43:38.742Z,46.35
2019-06-08T12:46:12.593Z,10.93
2019-06-08T12:48:42.592Z,9.65
2019-06-08T12:51:14.881Z,13.18
2019-06-08T12:53:46.494Z,9.43
2019-06-08T12:56:22.247Z,10.28
2019-06-08T12:58:51.061Z,13.22
2019-06-08T13:01:22.251Z,6.92
2019-06-08T13:03:53.172Z,9.23
2019-06-08T13:06:24.243Z,5.87
2019-06-08T13:08:57.492Z,8.65
2019-06-08T13:11:28.406Z,6.20
2019-06-08T13:13:59.574Z,6.85
2019-06-08T13:16:30.558Z,5.03
2019-06-08T13:19:01.554Z,12.00
2019-06-08T13:21:35.385Z,9.38
2019-06-08T13:24:05.468Z,9.40
2019-06-08T13:26:36.673Z,6.87
2019-06-08T13:29:09.188Z,6.50
2019-06-08T13:31:40.386Z,9.80
2019-06-08T13:34:14.277Z,6.67
2019-06-08T13:36:44.148Z,10.20
2019-06-08T13:39:15.261Z,6.67
2019-06-08T13:41:48.177Z,10.30
2019-06-08T13:44:19.819Z,7.70
2019-06-08T13:46:50.929Z,5.55
2019-06-08T13:49:25.544Z,11.10
2019-06-08T13:51:54.881Z,7.87
2019-06-08T13:54:30.811Z,8.43
2019-06-08T13:56:59.112Z,4.72
2019-06-08T13:59:30.938Z,4.53
2019-06-08T14:02:02.125Z,6.90
2019-06-08T14:04:34.905Z,4.20
2019-06-08T14:07:07.777Z,4.58
2019-06-08T14:09:38.933Z,3.75
2019-06-08T14:12:10.090Z,6.85
2019-06-08T14:14:41.306Z,2.77
2019-06-08T14:17:12.686Z,4.72
2019-06-08T14:19:43.606Z,5.15
2019-06-08T14:22:14.653Z,5.05
2019-06-08T14:24:47.833Z,2.58
2019-06-08T14:27:19.332Z,2.25
2019-06-08T14:29:51.355Z,4.33
2019-06-08T14:32:22.531Z,4.10
2019-06-08T14:34:53.566Z,3.17
2019-06-08T14:37:24.932Z,5.72
2019-06-08T14:39:57.438Z,3.25
2019-06-08T14:42:31.353Z,4.95
2019-06-08T14:45:01.526Z,6.28
2019-06-08T14:47:32.788Z,6.58
2019-06-08T14:50:04.239Z,4.30
2019-06-08T14:52:37.926Z,14.13
2019-06-08T14:55:08.158Z,6.45
2019-06-08T14:57:40.286Z,5.37
2019-06-08T15:00:13.473Z,3.02
2019-06-08T15:02:44.542Z,4.62
2019-06-08T15:05:18.140Z,4.87
2019-06-08T15:07:48.573Z,4.35
2019-06-08T15:10:21.475Z,5.28
2019-06-08T15:12:53.706Z,4.30
2019-06-08T15:15:25.870Z,2.83
2019-06-08T15:17:58.397Z,2.22
2019-06-08T15:20:30.346Z,8.60
2019-06-08T15:23:01.541Z,12.25
2019-06-08T15:25:33.048Z,7.20
2019-06-08T15:28:04.257Z,7.12
2019-06-08T15:30:38.031Z,17.87
2019-06-08T15:33:09.415Z,7.55
2019-06-08T15:35:40.543Z,7.60
2019-06-08T15:38:11.909Z,2.25
2019-06-08T15:40:43.361Z,3.40
2019-06-08T15:43:14.485Z,4.37
2019-06-08T15:45:48.901Z,4.47
2019-06-08T15:48:20.471Z,7.22
2019-06-08T15:50:51.277Z,10.88
2019-06-08T15:53:22.509Z,13.38
2019-06-08T15:55:53.825Z,3.67
2019-06-08T15:58:24.887Z,3.20
2019-06-08T16:00:56.051Z,2.85
2019-06-08T16:03:27.444Z,14.53
2019-06-08T16:05:58.667Z,12.37
2019-06-08T16:08:30.285Z,11.10
2019-06-08T16:11:01.703Z,4.35
2019-06-08T16:13:33.055Z,5.33
2019-06-08T16:16:04.239Z,3.75
2019-06-08T16:18:36.000Z,4.45
2019-06-08T16:21:07.271Z,3.15
2019-06-08T16:23:38.433Z,4.05
2019-06-08T16:26:09.632Z,4.80
2019-06-08T16:28:40.581Z,2.92
2019-06-08T16:31:13.403Z,10.65
2019-06-08T16:33:44.450Z,7.75
2019-06-08T16:36:15.774Z,4.47
2019-06-08T16:38:47.044Z,4.85
2019-06-08T16:41:18.062Z,4.62
2019-06-08T16:43:49.674Z,3.40
2019-06-08T16:46:20.687Z,17.70
2019-06-08T16:48:51.843Z,10.00
2019-06-08T16:51:22.991Z,4.83
2019-06-08T16:53:54.062Z,3.70
2019-06-08T16:56:25.268Z,4.22
2019-06-08T16:58:56.335Z,6.58
2019-06-08T17:01:28.364Z,3.00
2019-06-08T17:03:59.521Z,5.00
2019-06-08T17:06:31.158Z,4.58
2019-06-08T17:09:02.497Z,14.43
2019-06-08T17:11:33.755Z,8.90
2019-06-08T17:14:05.410Z,6.33
2019-06-08T17:16:36.552Z,2.52
2019-06-08T17:19:07.662Z,6.20
2019-06-08T17:21:38.624Z,6.17
2019-06-08T17:24:09.952Z,2.85
2019-06-08T17:26:40.908Z,3.55
2019-06-08T17:29:11.988Z,4.03
2019-06-08T17:31:42.920Z,6.92
2019-06-08T17:34:13.978Z,5.42
2019-06-08T17:36:45.049Z,4.20
2019-06-08T17:39:16.223Z,2.45
2019-06-08T17:41:47.396Z,3.10
2019-06-08T17:44:20.062Z,1.65
2019-06-08T17:46:51.526Z,1.75
2019-06-08T17:49:22.486Z,3.40
2019-06-08T17:51:53.808Z,3.62
2019-06-08T17:54:25.035Z,2.12
2019-06-08T17:56:56.334Z,2.27
2019-06-08T17:59:28.840Z,7.80
2019-06-08T18:01:59.991Z,7.33
2019-06-08T18:04:31.394Z,4.78
2019-06-08T18:07:02.620Z,3.30
2019-06-08T18:09:33.791Z,5.97
2019-06-08T18:12:07.618Z,4.45
2019-06-08T18:14:41.705Z,5.17
2019-06-08T18:17:11.640Z,3.75
2019-06-08T18:19:46.248Z,5.00
2019-06-08T18:22:18.437Z,3.60
2019-06-08T18:24:48.630Z,4.20
2019-06-08T18:27:19.565Z,5.10
2019-06-08T18:29:50.800Z,11.57
2019-06-08T18:32:21.838Z,10.25
2019-06-08T18:34:53.122Z,9.53
2019-06-08T18:37:24.330Z,10.78
2019-06-08T18:39:57.840Z,5.22
2019-06-08T18:42:28.664Z,8.60
2019-06-08T18:44:59.660Z,6.78
2019-06-08T18:47:30.785Z,4.87
2019-06-08T18:50:01.941Z,5.00
2019-06-08T18:52:32.868Z,3.83
2019-06-08T18:55:08.175Z,3.75
2019-06-08T18:57:39.873Z,4.22
2019-06-08T19:00:12.414Z,3.22
2019-06-08T19:02:46.250Z,4.72
2019-06-08T19:05:20.730Z,2.70
2019-06-08T19:07:51.934Z,4.40
2019-06-08T19:10:37.863Z,5.28
2019-06-08T19:13:08.857Z,12.45
2019-06-08T19:15:44.274Z,16.35
2019-06-08T19:18:13.148Z,24.35
2019-06-08T19:20:47.226Z,24.18
2019-06-08T19:23:20.665Z,14.80
2019-06-08T19:25:49.811Z,10.30
2019-06-08T19:28:35.220Z,7.58
2019-06-08T19:30:54.031Z,6.10
2019-06-08T19:33:27.590Z,7.05
2019-06-08T19:35:58.447Z,7.78
2019-06-08T19:38:29.506Z,7.03
2019-06-08T19:41:00.621Z,12.75
2019-06-08T19:43:31.770Z,13.08
2019-06-08T19:46:02.718Z,14.20
2019-06-08T19:48:33.549Z,7.30
2019-06-08T19:51:04.530Z,7.55
2019-06-08T19:53:41.622Z,11.60
2019-06-08T19:56:08.110Z,8.85
2019-06-08T19:58:52.404Z,9.30
2019-06-08T20:01:12.263Z,7.12
2019-06-08T20:03:44.711Z,8.40
2019-06-08T20:06:17.601Z,8.13
2019-06-08T20:08:51.139Z,6.60
2019-06-08T20:11:21.227Z,5.95
2019-06-08T20:13:52.312Z,5.35
2019-06-08T20:16:23.360Z,5.33
2019-06-08T20:18:54.605Z,14.38
2019-06-08T20:21:27.586Z,14.47
2019-06-08T20:23:58.713Z,13.25
2019-06-08T20:26:30.047Z,11.95
2019-06-08T20:29:12.106Z,7.55
2019-06-08T20:31:33.841Z,6.08
2019-06-08T20:34:06.948Z,7.15
2019-06-08T20:36:37.743Z,5.47
2019-06-08T20:39:09.586Z,6.70
2019-06-08T20:41:41.754Z,9.35
2019-06-08T20:44:12.888Z,6.87
2019-06-08T20:46:44.123Z,5.95
2019-06-08T20:49:17.164Z,5.97
2019-06-08T20:51:49.419Z,8.63
2019-06-08T20:54:20.665Z,9.95
2019-06-08T20:56:52.133Z,7.83
2019-06-08T20:59:30.950Z,8.60
2019-06-08T21:01:58.861Z,8.48
2019-06-08T21:04:30.276Z,10.32
2019-06-08T21:07:01.351Z,8.55
2019-06-08T21:09:32.383Z,7.45
2019-06-08T21:12:03.799Z,5.25
2019-06-08T21:14:34.693Z,9.10
2019-06-08T21:17:07.644Z,7.37
2019-06-08T21:19:38.501Z,6.37
2019-06-08T21:22:11.035Z,6.70
2019-06-08T21:24:42.001Z,6.53
2019-06-08T21:27:12.986Z,6.45
2019-06-08T21:29:49.082Z,8.03
2019-06-08T21:32:17.751Z,7.83
2019-06-08T21:34:51.736Z,7.95
2019-06-08T21:37:21.541Z,6.83
2019-06-08T21:39:55.371Z,7.15
2019-06-08T21:42:27.653Z,6.20
2019-06-08T21:44:59.995Z,5.97
2019-06-08T21:47:30.611Z,5.75
2019-06-08T21:50:01.728Z,6.90
2019-06-08T21:52:32.709Z,5.12
2019-06-08T21:55:03.850Z,5.25
2019-06-08T21:57:36.983Z,6.17
2019-06-08T22:00:29.407Z,6.62
2019-06-08T22:02:47.831Z,7.45
2019-06-08T22:05:18.362Z,5.47
2019-06-08T22:07:50.095Z,5.47
2019-06-08T22:10:21.401Z,4.53
2019-06-08T22:12:53.829Z,3.87
2019-06-08T22:15:27.152Z,7.72
2019-06-08T22:18:00.144Z,6.67
2019-06-08T22:20:31.157Z,8.45
2019-06-08T22:23:02.061Z,7.62
2019-06-08T22:25:33.383Z,5.35
2019-06-08T22:28:07.026Z,6.85
2019-06-08T22:30:42.738Z,6.47
2019-06-08T22:33:09.802Z,5.80
2019-06-08T22:35:40.850Z,5.78
2019-06-08T22:38:11.825Z,5.22
2019-06-08T22:40:42.950Z,5.97
2019-06-08T22:43:14.080Z,5.67
2019-06-08T22:45:45.131Z,4.78
2019-06-08T22:48:18.638Z,4.05
2019-06-08T22:50:48.676Z,5.30
2019-06-08T22:53:19.546Z,6.78
2019-06-08T22:55:50.518Z,7.67
2019-06-08T22:58:21.598Z,6.72
2019-06-08T23:00:53.197Z,9.30
2019-06-08T23:03:25.130Z,7.80
2019-06-08T23:05:59.744Z,7.40
2019-06-08T23:08:29.184Z,11.12
2019-06-08T23:11:02.066Z,10.48
2019-06-08T23:13:33.430Z,10.85
2019-06-08T23:16:06.215Z,9.58
2019-06-08T23:18:37.421Z,7.17
2019-06-08T23:21:09.121Z,5.92
2019-06-08T23:23:40.107Z,6.75
2019-06-08T23:26:11.243Z,4.95
2019-06-08T23:28:42.234Z,6.55
2019-06-08T23:31:22.522Z,5.83
2019-06-08T23:33:48.299Z,4.67
2019-06-08T23:36:45.641Z,6.45
2019-06-08T23:38:52.208Z,4.50
2019-06-08T23:41:23.444Z,3.67
2019-06-08T23:43:54.689Z,4.47
2019-06-08T23:46:27.363Z,5.55
2019-06-08T23:49:01.521Z,6.20
2019-06-08T23:51:31.852Z,5.80
2019-06-08T23:54:04.262Z,5.87
2019-06-08T23:56:37.062Z,5.47
2019-06-08T23:59:09.454Z,5.55
